sensor_id;sensor_type;location;lat;lon;timestamp;temperature;humidity
74364;DHT22;62797;49.740;10.154;2023-03-23T00:02:30;13.60;31.00
74364;DHT22;62797;49.740;10.154;2023-03-23T00:05:01;13.50;31.50
74364;DHT22;62797;49.740;10.154;2023-03-23T00:07:28;13.40;30.20
74364;DHT22;62797;49.740;10.154;2023-03-23T00:09:55;13.80;28.80
74364;DHT22;62797;49.740;10.154;2023-03-23T00:12:22;14.00;28.40
74364;DHT22;62797;49.740;10.154;2023-03-23T00:14:55;14.10;28.00
74364;DHT22;62797;49.740;10.154;2023-03-23T00:17:20;14.10;28.20
74364;DHT22;62797;49.740;10.154;2023-03-23T00:19:47;14.20;28.60
74364;DHT22;62797;49.740;10.154;2023-03-23T00:22:14;14.10;29.20
74364;DHT22;62797;49.740;10.154;2023-03-23T00:24:41;14.00;29.90
74364;DHT22;62797;49.740;10.154;2023-03-23T00:27:08;13.90;30.00
74364;DHT22;62797;49.740;10.154;2023-03-23T00:29:41;13.80;30.30
74364;DHT22;62797;49.740;10.154;2023-03-23T00:32:08;13.80;30.70
74364;DHT22;62797;49.740;10.154;2023-03-23T00:34:42;13.70;30.30
74364;DHT22;62797;49.740;10.154;2023-03-23T00:37:10;13.60;29.90
74364;DHT22;62797;49.740;10.154;2023-03-23T00:39:38;13.60;29.60
74364;DHT22;62797;49.740;10.154;2023-03-23T00:42:04;13.70;29.40
74364;DHT22;62797;49.740;10.154;2023-03-23T00:44:33;13.80;28.90
74364;DHT22;62797;49.740;10.154;2023-03-23T00:47:00;13.90;28.90
74364;DHT22;62797;49.740;10.154;2023-03-23T00:49:26;13.80;29.00
74364;DHT22;62797;49.740;10.154;2023-03-23T00:51:54;13.80;28.90
74364;DHT22;62797;49.740;10.154;2023-03-23T00:54:21;13.80;28.90
74364;DHT22;62797;49.740;10.154;2023-03-23T00:56:49;13.80;28.80
74364;DHT22;62797;49.740;10.154;2023-03-23T00:59:15;13.90;28.60
74364;DHT22;62797;49.740;10.154;2023-03-23T01:01:40;13.80;29.30
74364;DHT22;62797;49.740;10.154;2023-03-23T01:04:07;13.80;28.80
74364;DHT22;62797;49.740;10.154;2023-03-23T01:06:35;13.80;29.20
74364;DHT22;62797;49.740;10.154;2023-03-23T01:09:02;13.70;29.20
74364;DHT22;62797;49.740;10.154;2023-03-23T01:11:28;13.70;29.20
74364;DHT22;62797;49.740;10.154;2023-03-23T01:13:56;13.70;29.80
74364;DHT22;62797;49.740;10.154;2023-03-23T01:16:22;13.60;29.30
74364;DHT22;62797;49.740;10.154;2023-03-23T01:18:48;13.60;29.60
74364;DHT22;62797;49.740;10.154;2023-03-23T01:21:15;13.60;29.40
74364;DHT22;62797;49.740;10.154;2023-03-23T01:23:42;13.60;29.40
74364;DHT22;62797;49.740;10.154;2023-03-23T01:26:18;13.60;29.40
74364;DHT22;62797;49.740;10.154;2023-03-23T01:28:44;13.60;29.80
74364;DHT22;62797;49.740;10.154;2023-03-23T01:31:13;13.50;30.10
74364;DHT22;62797;49.740;10.154;2023-03-23T01:33:40;13.60;29.90
74364;DHT22;62797;49.740;10.154;2023-03-23T01:36:15;13.50;29.90
74364;DHT22;62797;49.740;10.154;2023-03-23T01:38:44;13.50;30.00
74364;DHT22;62797;49.740;10.154;2023-03-23T01:41:10;13.40;30.00
74364;DHT22;62797;49.740;10.154;2023-03-23T01:43:58;13.40;30.00
74364;DHT22;62797;49.740;10.154;2023-03-23T01:46:28;13.40;30.30
74364;DHT22;62797;49.740;10.154;2023-03-23T01:48:57;13.30;30.50
74364;DHT22;62797;49.740;10.154;2023-03-23T01:51:24;13.30;31.00
74364;DHT22;62797;49.740;10.154;2023-03-23T01:53:55;13.30;31.10
74364;DHT22;62797;49.740;10.154;2023-03-23T01:56:26;13.30;31.60
74364;DHT22;62797;49.740;10.154;2023-03-23T01:58:56;13.30;31.60
74364;DHT22;62797;49.740;10.154;2023-03-23T02:01:24;13.20;31.90
74364;DHT22;62797;49.740;10.154;2023-03-23T02:03:54;13.10;32.60
74364;DHT22;62797;49.740;10.154;2023-03-23T02:06:21;13.10;32.50
74364;DHT22;62797;49.740;10.154;2023-03-23T02:09:19;13.10;32.50
74364;DHT22;62797;49.740;10.154;2023-03-23T02:11:48;13.00;32.20
74364;DHT22;62797;49.740;10.154;2023-03-23T02:14:16;13.00;32.10
74364;DHT22;62797;49.740;10.154;2023-03-23T02:25:43;13.00;31.30
74364;DHT22;62797;49.740;10.154;2023-03-23T02:36:45;13.00;30.40
74364;DHT22;62797;49.740;10.154;2023-03-23T02:39:29;13.10;30.30
74364;DHT22;62797;49.740;10.154;2023-03-23T02:42:00;13.00;31.20
74364;DHT22;62797;49.740;10.154;2023-03-23T02:44:28;13.00;32.30
74364;DHT22;62797;49.740;10.154;2023-03-23T02:46:57;13.00;32.30
74364;DHT22;62797;49.740;10.154;2023-03-23T02:49:25;12.90;33.20
74364;DHT22;62797;49.740;10.154;2023-03-23T02:51:55;12.80;33.10
74364;DHT22;62797;49.740;10.154;2023-03-23T02:54:22;12.80;33.40
74364;DHT22;62797;49.740;10.154;2023-03-23T02:56:52;12.80;32.80
74364;DHT22;62797;49.740;10.154;2023-03-23T02:59:23;12.70;33.50
74364;DHT22;62797;49.740;10.154;2023-03-23T03:01:55;12.70;33.10
74364;DHT22;62797;49.740;10.154;2023-03-23T03:04:23;12.70;33.60
74364;DHT22;62797;49.740;10.154;2023-03-23T03:07:15;12.70;33.20
74364;DHT22;62797;49.740;10.154;2023-03-23T03:09:54;12.70;34.40
74364;DHT22;62797;49.740;10.154;2023-03-23T03:15:23;12.60;34.20
74364;DHT22;62797;49.740;10.154;2023-03-23T03:18:13;12.60;35.30
74364;DHT22;62797;49.740;10.154;2023-03-23T03:20:49;12.50;35.70
74364;DHT22;62797;49.740;10.154;2023-03-23T03:23:17;12.40;35.70
74364;DHT22;62797;49.740;10.154;2023-03-23T03:25:46;12.40;35.20
74364;DHT22;62797;49.740;10.154;2023-03-23T03:28:22;12.40;35.50
74364;DHT22;62797;49.740;10.154;2023-03-23T03:30:54;12.40;35.40
74364;DHT22;62797;49.740;10.154;2023-03-23T03:33:22;12.50;35.00
74364;DHT22;62797;49.740;10.154;2023-03-23T03:35:53;12.50;36.40
74364;DHT22;62797;49.740;10.154;2023-03-23T03:38:20;12.50;35.80
74364;DHT22;62797;49.740;10.154;2023-03-23T03:40:46;12.50;36.80
74364;DHT22;62797;49.740;10.154;2023-03-23T03:43:11;12.50;35.10
74364;DHT22;62797;49.740;10.154;2023-03-23T03:45:37;12.50;34.70
74364;DHT22;62797;49.740;10.154;2023-03-23T03:48:03;12.50;34.60
74364;DHT22;62797;49.740;10.154;2023-03-23T03:50:29;12.60;34.80
74364;DHT22;62797;49.740;10.154;2023-03-23T03:52:56;12.50;34.60
74364;DHT22;62797;49.740;10.154;2023-03-23T03:55:23;12.50;34.40
74364;DHT22;62797;49.740;10.154;2023-03-23T03:57:50;12.50;35.60
74364;DHT22;62797;49.740;10.154;2023-03-23T04:00:42;12.50;35.70
74364;DHT22;62797;49.740;10.154;2023-03-23T04:03:09;12.50;35.80
74364;DHT22;62797;49.740;10.154;2023-03-23T04:05:48;12.50;36.00
74364;DHT22;62797;49.740;10.154;2023-03-23T04:08:14;12.50;36.80
74364;DHT22;62797;49.740;10.154;2023-03-23T04:10:41;12.40;36.00
74364;DHT22;62797;49.740;10.154;2023-03-23T04:13:07;12.40;37.00
74364;DHT22;62797;49.740;10.154;2023-03-23T04:15:53;12.40;37.10
74364;DHT22;62797;49.740;10.154;2023-03-23T04:18:19;12.30;38.20
74364;DHT22;62797;49.740;10.154;2023-03-23T04:20:48;12.20;38.00
74364;DHT22;62797;49.740;10.154;2023-03-23T04:23:18;12.20;38.30
74364;DHT22;62797;49.740;10.154;2023-03-23T04:25:46;12.20;37.40
74364;DHT22;62797;49.740;10.154;2023-03-23T04:28:16;12.20;37.50
74364;DHT22;62797;49.740;10.154;2023-03-23T04:31:08;12.20;37.70
74364;DHT22;62797;49.740;10.154;2023-03-23T04:33:34;12.20;37.80
74364;DHT22;62797;49.740;10.154;2023-03-23T04:36:01;12.20;37.20
74364;DHT22;62797;49.740;10.154;2023-03-23T04:38:34;12.30;37.70
74364;DHT22;62797;49.740;10.154;2023-03-23T04:41:08;12.30;37.80
74364;DHT22;62797;49.740;10.154;2023-03-23T04:43:42;12.20;37.80
74364;DHT22;62797;49.740;10.154;2023-03-23T04:46:27;12.30;38.60
74364;DHT22;62797;49.740;10.154;2023-03-23T04:48:57;12.30;37.30
74364;DHT22;62797;49.740;10.154;2023-03-23T04:51:30;12.30;36.20
74364;DHT22;62797;49.740;10.154;2023-03-23T04:54:01;12.50;35.80
74364;DHT22;62797;49.740;10.154;2023-03-23T04:56:29;12.50;35.20
74364;DHT22;62797;49.740;10.154;2023-03-23T04:58:58;12.60;35.00
74364;DHT22;62797;49.740;10.154;2023-03-23T05:01:46;12.60;35.10
74364;DHT22;62797;49.740;10.154;2023-03-23T05:04:16;12.70;34.80
74364;DHT22;62797;49.740;10.154;2023-03-23T05:06:50;12.70;35.00
74364;DHT22;62797;49.740;10.154;2023-03-23T05:09:22;12.70;34.70
74364;DHT22;62797;49.740;10.154;2023-03-23T05:11:48;12.70;34.90
74364;DHT22;62797;49.740;10.154;2023-03-23T05:14:14;12.70;34.80
74364;DHT22;62797;49.740;10.154;2023-03-23T05:16:44;12.70;34.50
74364;DHT22;62797;49.740;10.154;2023-03-23T05:19:14;12.70;34.60
74364;DHT22;62797;49.740;10.154;2023-03-23T05:21:40;12.80;34.30
74364;DHT22;62797;49.740;10.154;2023-03-23T05:24:06;12.80;34.60
74364;DHT22;62797;49.740;10.154;2023-03-23T05:26:34;12.80;34.80
74364;DHT22;62797;49.740;10.154;2023-03-23T05:29:10;12.80;34.70
74364;DHT22;62797;49.740;10.154;2023-03-23T05:31:46;12.80;34.70
74364;DHT22;62797;49.740;10.154;2023-03-23T05:34:13;12.80;34.60
74364;DHT22;62797;49.740;10.154;2023-03-23T05:36:46;12.80;34.40
74364;DHT22;62797;49.740;10.154;2023-03-23T05:39:32;12.80;34.60
74364;DHT22;62797;49.740;10.154;2023-03-23T05:42:24;12.80;34.60
74364;DHT22;62797;49.740;10.154;2023-03-23T05:45:00;12.80;34.80
74364;DHT22;62797;49.740;10.154;2023-03-23T05:47:27;12.90;35.50
74364;DHT22;62797;49.740;10.154;2023-03-23T05:49:58;12.90;34.90
74364;DHT22;62797;49.740;10.154;2023-03-23T05:52:25;12.90;34.70
74364;DHT22;62797;49.740;10.154;2023-03-23T05:54:52;12.90;35.20
74364;DHT22;62797;49.740;10.154;2023-03-23T05:57:19;12.90;35.10
74364;DHT22;62797;49.740;10.154;2023-03-23T05:59:52;12.90;35.10
74364;DHT22;62797;49.740;10.154;2023-03-23T06:02:22;12.90;35.30
74364;DHT22;62797;49.740;10.154;2023-03-23T06:04:51;12.90;37.80
74364;DHT22;62797;49.740;10.154;2023-03-23T06:07:26;12.80;39.00
74364;DHT22;62797;49.740;10.154;2023-03-23T06:09:58;12.70;40.10
74364;DHT22;62797;49.740;10.154;2023-03-23T06:12:23;12.70;40.70
74364;DHT22;62797;49.740;10.154;2023-03-23T06:15:09;12.70;42.70
74364;DHT22;62797;49.740;10.154;2023-03-23T06:17:54;12.60;43.90
74364;DHT22;62797;49.740;10.154;2023-03-23T06:20:28;12.50;46.20
74364;DHT22;62797;49.740;10.154;2023-03-23T06:22:55;12.30;46.70
74364;DHT22;62797;49.740;10.154;2023-03-23T06:25:32;12.20;47.50
74364;DHT22;62797;49.740;10.154;2023-03-23T06:27:58;12.20;50.60
74364;DHT22;62797;49.740;10.154;2023-03-23T06:30:24;12.10;53.70
74364;DHT22;62797;49.740;10.154;2023-03-23T06:32:53;12.10;49.80
74364;DHT22;62797;49.740;10.154;2023-03-23T06:35:32;12.00;52.70
74364;DHT22;62797;49.740;10.154;2023-03-23T06:38:20;12.10;54.90
74364;DHT22;62797;49.740;10.154;2023-03-23T06:40:52;12.00;58.10
74364;DHT22;62797;49.740;10.154;2023-03-23T06:43:18;12.00;59.50
74364;DHT22;62797;49.740;10.154;2023-03-23T06:45:59;11.90;59.70
74364;DHT22;62797;49.740;10.154;2023-03-23T06:48:25;11.90;61.00
74364;DHT22;62797;49.740;10.154;2023-03-23T06:50:52;12.00;62.40
74364;DHT22;62797;49.740;10.154;2023-03-23T06:53:19;11.90;63.10
74364;DHT22;62797;49.740;10.154;2023-03-23T06:55:47;12.00;63.20
74364;DHT22;62797;49.740;10.154;2023-03-23T06:58:13;12.00;63.90
74364;DHT22;62797;49.740;10.154;2023-03-23T07:00:40;12.10;64.90
74364;DHT22;62797;49.740;10.154;2023-03-23T07:03:08;12.30;64.70
74364;DHT22;62797;49.740;10.154;2023-03-23T07:05:39;12.20;65.80
74364;DHT22;62797;49.740;10.154;2023-03-23T07:08:05;12.20;55.20
74364;DHT22;62797;49.740;10.154;2023-03-23T07:10:40;12.20;55.10
74364;DHT22;62797;49.740;10.154;2023-03-23T07:13:07;12.50;50.60
74364;DHT22;62797;49.740;10.154;2023-03-23T07:15:43;12.60;47.90
74364;DHT22;62797;49.740;10.154;2023-03-23T07:18:09;12.60;43.90
74364;DHT22;62797;49.740;10.154;2023-03-23T07:20:41;12.70;45.70
74364;DHT22;62797;49.740;10.154;2023-03-23T07:23:07;12.80;45.50
74364;DHT22;62797;49.740;10.154;2023-03-23T07:25:44;12.90;47.00
74364;DHT22;62797;49.740;10.154;2023-03-23T07:28:16;13.10;44.80
74364;DHT22;62797;49.740;10.154;2023-03-23T07:30:42;13.10;44.10
74364;DHT22;62797;49.740;10.154;2023-03-23T07:33:09;13.20;42.10
74364;DHT22;62797;49.740;10.154;2023-03-23T07:35:36;13.20;41.40
74364;DHT22;62797;49.740;10.154;2023-03-23T07:38:08;13.30;39.20
74364;DHT22;62797;49.740;10.154;2023-03-23T07:40:35;13.20;41.20
74364;DHT22;62797;49.740;10.154;2023-03-23T07:43:07;13.20;39.80
74364;DHT22;62797;49.740;10.154;2023-03-23T07:45:53;13.20;40.80
74364;DHT22;62797;49.740;10.154;2023-03-23T07:48:20;13.20;41.90
74364;DHT22;62797;49.740;10.154;2023-03-23T07:50:46;13.30;40.00
74364;DHT22;62797;49.740;10.154;2023-03-23T07:53:14;13.30;41.50
74364;DHT22;62797;49.740;10.154;2023-03-23T07:55:43;13.30;41.00
74364;DHT22;62797;49.740;10.154;2023-03-23T07:58:30;13.40;39.80
74364;DHT22;62797;49.740;10.154;2023-03-23T08:00:56;13.40;38.50
74364;DHT22;62797;49.740;10.154;2023-03-23T08:03:23;13.40;39.00
74364;DHT22;62797;49.740;10.154;2023-03-23T08:06:14;13.50;39.90
74364;DHT22;62797;49.740;10.154;2023-03-23T08:09:19;13.60;39.10
74364;DHT22;62797;49.740;10.154;2023-03-23T08:11:57;13.60;37.80
74364;DHT22;62797;49.740;10.154;2023-03-23T08:14:53;13.70;36.70
74364;DHT22;62797;49.740;10.154;2023-03-23T08:17:41;13.80;36.40
74364;DHT22;62797;49.740;10.154;2023-03-23T08:20:28;13.90;35.70
74364;DHT22;62797;49.740;10.154;2023-03-23T08:22:56;13.90;36.70
74364;DHT22;62797;49.740;10.154;2023-03-23T08:25:38;14.00;35.40
74364;DHT22;62797;49.740;10.154;2023-03-23T08:28:27;14.00;35.80
74364;DHT22;62797;49.740;10.154;2023-03-23T08:31:31;14.20;35.40
74364;DHT22;62797;49.740;10.154;2023-03-23T08:34:05;14.50;33.60
74364;DHT22;62797;49.740;10.154;2023-03-23T08:36:45;14.60;33.70
74364;DHT22;62797;49.740;10.154;2023-03-23T08:39:44;14.70;33.50
74364;DHT22;62797;49.740;10.154;2023-03-23T08:42:30;14.80;33.50
74364;DHT22;62797;49.740;10.154;2023-03-23T08:45:18;14.70;33.40
74364;DHT22;62797;49.740;10.154;2023-03-23T08:47:52;14.80;32.00
74364;DHT22;62797;49.740;10.154;2023-03-23T08:50:39;14.90;33.10
74364;DHT22;62797;49.740;10.154;2023-03-23T08:53:10;14.90;32.40
74364;DHT22;62797;49.740;10.154;2023-03-23T08:55:39;15.00;32.70
74364;DHT22;62797;49.740;10.154;2023-03-23T08:58:28;14.90;31.60
74364;DHT22;62797;49.740;10.154;2023-03-23T09:01:04;15.10;32.20
74364;DHT22;62797;49.740;10.154;2023-03-23T09:03:44;15.20;32.20
74364;DHT22;62797;49.740;10.154;2023-03-23T09:06:28;15.20;31.30
74364;DHT22;62797;49.740;10.154;2023-03-23T09:08:54;15.00;32.20
74364;DHT22;62797;49.740;10.154;2023-03-23T09:11:21;15.10;33.00
74364;DHT22;62797;49.740;10.154;2023-03-23T09:13:47;15.10;32.30
74364;DHT22;62797;49.740;10.154;2023-03-23T09:16:13;15.30;31.60
74364;DHT22;62797;49.740;10.154;2023-03-23T09:18:38;15.30;33.20
74364;DHT22;62797;49.740;10.154;2023-03-23T09:21:04;15.30;32.50
74364;DHT22;62797;49.740;10.154;2023-03-23T09:23:31;14.70;34.70
74364;DHT22;62797;49.740;10.154;2023-03-23T09:25:56;14.90;35.90
74364;DHT22;62797;49.740;10.154;2023-03-23T09:28:22;14.70;36.40
74364;DHT22;62797;49.740;10.154;2023-03-23T09:30:48;14.60;36.50
74364;DHT22;62797;49.740;10.154;2023-03-23T09:33:14;14.60;36.10
74364;DHT22;62797;49.740;10.154;2023-03-23T09:35:40;14.60;36.40
74364;DHT22;62797;49.740;10.154;2023-03-23T09:38:08;14.40;36.40
74364;DHT22;62797;49.740;10.154;2023-03-23T09:41:11;14.40;36.30
74364;DHT22;62797;49.740;10.154;2023-03-23T09:46:30;14.40;37.10
74364;DHT22;62797;49.740;10.154;2023-03-23T09:49:12;14.40;37.70
74364;DHT22;62797;49.740;10.154;2023-03-23T09:51:54;14.50;36.70
74364;DHT22;62797;49.740;10.154;2023-03-23T09:56:52;14.60;36.50
74364;DHT22;62797;49.740;10.154;2023-03-23T09:59:32;14.50;37.40
74364;DHT22;62797;49.740;10.154;2023-03-23T10:02:14;14.60;36.80
74364;DHT22;62797;49.740;10.154;2023-03-23T10:04:47;14.60;37.00
74364;DHT22;62797;49.740;10.154;2023-03-23T10:07:17;14.60;36.60
74364;DHT22;62797;49.740;10.154;2023-03-23T10:09:45;14.70;36.60
74364;DHT22;62797;49.740;10.154;2023-03-23T10:12:27;14.60;37.10
74364;DHT22;62797;49.740;10.154;2023-03-23T10:14:58;14.60;37.40
74364;DHT22;62797;49.740;10.154;2023-03-23T10:17:53;14.40;37.70
74364;DHT22;62797;49.740;10.154;2023-03-23T10:23:08;14.40;39.90
74364;DHT22;62797;49.740;10.154;2023-03-23T10:25:37;14.40;41.30
74364;DHT22;62797;49.740;10.154;2023-03-23T10:28:12;14.40;40.30
74364;DHT22;62797;49.740;10.154;2023-03-23T10:30:46;14.50;40.20
74364;DHT22;62797;49.740;10.154;2023-03-23T10:33:29;14.40;39.90
74364;DHT22;62797;49.740;10.154;2023-03-23T10:38:40;14.30;40.20
74364;DHT22;62797;49.740;10.154;2023-03-23T10:41:13;14.20;40.10
74364;DHT22;62797;49.740;10.154;2023-03-23T10:43:40;14.30;40.20
74364;DHT22;62797;49.740;10.154;2023-03-23T10:48:56;14.40;40.20
74364;DHT22;62797;49.740;10.154;2023-03-23T10:51:29;14.40;39.80
74364;DHT22;62797;49.740;10.154;2023-03-23T10:53:58;14.50;39.70
74364;DHT22;62797;49.740;10.154;2023-03-23T10:56:44;14.40;39.80
74364;DHT22;62797;49.740;10.154;2023-03-23T10:59:25;14.50;40.70
74364;DHT22;62797;49.740;10.154;2023-03-23T11:01:55;14.70;38.40
74364;DHT22;62797;49.740;10.154;2023-03-23T11:04:22;14.90;38.90
74364;DHT22;62797;49.740;10.154;2023-03-23T11:06:57;15.20;37.40
74364;DHT22;62797;49.740;10.154;2023-03-23T11:09:36;15.20;36.50
74364;DHT22;62797;49.740;10.154;2023-03-23T11:12:02;15.20;37.00
74364;DHT22;62797;49.740;10.154;2023-03-23T11:14:30;15.30;35.70
74364;DHT22;62797;49.740;10.154;2023-03-23T11:17:01;15.40;35.40
74364;DHT22;62797;49.740;10.154;2023-03-23T11:19:29;15.40;34.70
74364;DHT22;62797;49.740;10.154;2023-03-23T11:24:55;15.50;34.00
74364;DHT22;62797;49.740;10.154;2023-03-23T11:27:24;15.50;33.50
74364;DHT22;62797;49.740;10.154;2023-03-23T11:29:54;15.60;33.10
74364;DHT22;62797;49.740;10.154;2023-03-23T11:32:26;15.50;32.00
74364;DHT22;62797;49.740;10.154;2023-03-23T11:35:04;15.50;32.20
74364;DHT22;62797;49.740;10.154;2023-03-23T11:37:42;15.50;31.20
74364;DHT22;62797;49.740;10.154;2023-03-23T11:42:42;15.60;32.20
74364;DHT22;62797;49.740;10.154;2023-03-23T11:53:22;15.70;32.90
74364;DHT22;62797;49.740;10.154;2023-03-23T11:58:50;15.90;33.10
74364;DHT22;62797;49.740;10.154;2023-03-23T12:10:25;16.00;33.70
74364;DHT22;62797;49.740;10.154;2023-03-23T12:13:18;16.10;33.50
74364;DHT22;62797;49.740;10.154;2023-03-23T12:16:02;16.10;34.50
74364;DHT22;62797;49.740;10.154;2023-03-23T12:27:28;15.90;33.70
74364;DHT22;62797;49.740;10.154;2023-03-23T12:35:53;15.60;34.90
74364;DHT22;62797;49.740;10.154;2023-03-23T12:38:28;15.60;35.20
74364;DHT22;62797;49.740;10.154;2023-03-23T12:41:06;15.60;34.80
74364;DHT22;62797;49.740;10.154;2023-03-23T12:43:57;15.50;36.00
74364;DHT22;62797;49.740;10.154;2023-03-23T12:49:04;15.30;36.30
74364;DHT22;62797;49.740;10.154;2023-03-23T12:51:37;15.30;36.30
74364;DHT22;62797;49.740;10.154;2023-03-23T12:54:37;15.20;36.30
74364;DHT22;62797;49.740;10.154;2023-03-23T12:57:27;15.20;38.20
74364;DHT22;62797;49.740;10.154;2023-03-23T13:03:02;14.60;43.00
74364;DHT22;62797;49.740;10.154;2023-03-23T13:05:44;14.60;44.10
74364;DHT22;62797;49.740;10.154;2023-03-23T13:08:13;14.80;42.20
74364;DHT22;62797;49.740;10.154;2023-03-23T13:10:49;15.00;42.80
74364;DHT22;62797;49.740;10.154;2023-03-23T13:13:21;15.10;42.00
74364;DHT22;62797;49.740;10.154;2023-03-23T13:16:01;15.30;41.30
74364;DHT22;62797;49.740;10.154;2023-03-23T13:23:50;15.40;41.20
74364;DHT22;62797;49.740;10.154;2023-03-23T13:26:21;15.40;41.70
74364;DHT22;62797;49.740;10.154;2023-03-23T13:29:14;15.40;41.20
74364;DHT22;62797;49.740;10.154;2023-03-23T13:31:43;15.40;41.50
74364;DHT22;62797;49.740;10.154;2023-03-23T13:34:29;15.30;42.40
74364;DHT22;62797;49.740;10.154;2023-03-23T13:37:04;15.60;41.30
74364;DHT22;62797;49.740;10.154;2023-03-23T13:39:34;15.80;41.20
74364;DHT22;62797;49.740;10.154;2023-03-23T13:42:19;16.20;38.10
74364;DHT22;62797;49.740;10.154;2023-03-23T13:52:38;17.00;34.60
74364;DHT22;62797;49.740;10.154;2023-03-23T13:58:12;16.80;33.30
74364;DHT22;62797;49.740;10.154;2023-03-23T14:01:30;16.60;33.70
74364;DHT22;62797;49.740;10.154;2023-03-23T14:03:42;16.60;33.80
74364;DHT22;62797;49.740;10.154;2023-03-23T14:06:20;16.50;34.10
74364;DHT22;62797;49.740;10.154;2023-03-23T14:09:11;16.30;34.10
74364;DHT22;62797;49.740;10.154;2023-03-23T14:12:01;15.90;34.70
74364;DHT22;62797;49.740;10.154;2023-03-23T14:14:40;15.90;35.00
74364;DHT22;62797;49.740;10.154;2023-03-23T14:17:20;15.80;34.90
74364;DHT22;62797;49.740;10.154;2023-03-23T14:19:52;15.80;35.30
74364;DHT22;62797;49.740;10.154;2023-03-23T14:22:27;15.70;35.70
74364;DHT22;62797;49.740;10.154;2023-03-23T14:25:00;15.50;35.50
74364;DHT22;62797;49.740;10.154;2023-03-23T14:27:26;15.50;36.30
74364;DHT22;62797;49.740;10.154;2023-03-23T14:30:05;15.50;36.00
74364;DHT22;62797;49.740;10.154;2023-03-23T14:32:32;15.60;35.30
74364;DHT22;62797;49.740;10.154;2023-03-23T14:35:00;15.50;35.30
74364;DHT22;62797;49.740;10.154;2023-03-23T14:37:31;15.50;35.70
74364;DHT22;62797;49.740;10.154;2023-03-23T14:39:58;15.40;35.70
74364;DHT22;62797;49.740;10.154;2023-03-23T14:42:33;15.40;35.90
74364;DHT22;62797;49.740;10.154;2023-03-23T14:45:01;15.40;36.00
74364;DHT22;62797;49.740;10.154;2023-03-23T14:47:38;15.30;36.00
74364;DHT22;62797;49.740;10.154;2023-03-23T14:50:21;15.20;36.10
74364;DHT22;62797;49.740;10.154;2023-03-23T14:52:48;15.10;36.80
74364;DHT22;62797;49.740;10.154;2023-03-23T14:55:20;15.20;35.80
74364;DHT22;62797;49.740;10.154;2023-03-23T14:57:47;15.00;35.90
74364;DHT22;62797;49.740;10.154;2023-03-23T15:00:17;15.00;36.50
74364;DHT22;62797;49.740;10.154;2023-03-23T15:02:48;14.90;36.70
74364;DHT22;62797;49.740;10.154;2023-03-23T15:05:19;15.00;36.50
74364;DHT22;62797;49.740;10.154;2023-03-23T15:07:50;15.00;35.60
74364;DHT22;62797;49.740;10.154;2023-03-23T15:10:19;15.00;36.00
74364;DHT22;62797;49.740;10.154;2023-03-23T15:12:46;15.00;36.10
74364;DHT22;62797;49.740;10.154;2023-03-23T15:15:28;15.00;36.50
74364;DHT22;62797;49.740;10.154;2023-03-23T15:17:55;15.00;35.40
74364;DHT22;62797;49.740;10.154;2023-03-23T15:20:27;14.90;35.90
74364;DHT22;62797;49.740;10.154;2023-03-23T15:22:54;15.00;36.30
74364;DHT22;62797;49.740;10.154;2023-03-23T15:28:06;15.00;36.30
74364;DHT22;62797;49.740;10.154;2023-03-23T15:30:49;15.00;35.90
74364;DHT22;62797;49.740;10.154;2023-03-23T15:33:15;15.00;35.90
74364;DHT22;62797;49.740;10.154;2023-03-23T15:35:49;15.00;36.30
74364;DHT22;62797;49.740;10.154;2023-03-23T15:38:30;15.00;35.20
74364;DHT22;62797;49.740;10.154;2023-03-23T15:40:58;15.10;35.60
74364;DHT22;62797;49.740;10.154;2023-03-23T15:43:31;15.00;35.60
74364;DHT22;62797;49.740;10.154;2023-03-23T15:48:30;15.10;35.40
74364;DHT22;62797;49.740;10.154;2023-03-23T15:50:57;15.10;35.00
74364;DHT22;62797;49.740;10.154;2023-03-23T15:53:27;15.00;35.30
74364;DHT22;62797;49.740;10.154;2023-03-23T15:55:53;15.00;35.50
74364;DHT22;62797;49.740;10.154;2023-03-23T15:58:19;15.00;35.20
74364;DHT22;62797;49.740;10.154;2023-03-23T16:00:45;15.00;35.70
74364;DHT22;62797;49.740;10.154;2023-03-23T16:03:38;15.00;36.40
74364;DHT22;62797;49.740;10.154;2023-03-23T16:06:04;15.10;34.90
74364;DHT22;62797;49.740;10.154;2023-03-23T16:08:30;15.10;35.40
74364;DHT22;62797;49.740;10.154;2023-03-23T16:10:56;15.10;35.60
74364;DHT22;62797;49.740;10.154;2023-03-23T16:13:22;15.10;35.80
74364;DHT22;62797;49.740;10.154;2023-03-23T16:15:48;15.20;35.00
74364;DHT22;62797;49.740;10.154;2023-03-23T16:18:18;15.20;34.90
74364;DHT22;62797;49.740;10.154;2023-03-23T16:20:44;15.20;34.80
74364;DHT22;62797;49.740;10.154;2023-03-23T16:23:13;15.20;35.30
74364;DHT22;62797;49.740;10.154;2023-03-23T16:25:38;15.20;34.90
74364;DHT22;62797;49.740;10.154;2023-03-23T16:28:04;15.20;34.90
74364;DHT22;62797;49.740;10.154;2023-03-23T16:30:33;15.10;35.00
74364;DHT22;62797;49.740;10.154;2023-03-23T16:33:00;15.10;35.00
74364;DHT22;62797;49.740;10.154;2023-03-23T16:35:26;15.10;35.10
74364;DHT22;62797;49.740;10.154;2023-03-23T16:37:54;15.00;35.40
74364;DHT22;62797;49.740;10.154;2023-03-23T16:40:21;15.00;35.40
74364;DHT22;62797;49.740;10.154;2023-03-23T16:42:47;15.00;34.70
74364;DHT22;62797;49.740;10.154;2023-03-23T16:45:13;15.00;34.70
74364;DHT22;62797;49.740;10.154;2023-03-23T16:47:40;14.90;35.10
74364;DHT22;62797;49.740;10.154;2023-03-23T16:50:08;14.90;35.10
74364;DHT22;62797;49.740;10.154;2023-03-23T16:52:36;14.80;35.60
74364;DHT22;62797;49.740;10.154;2023-03-23T16:55:03;14.80;35.40
74364;DHT22;62797;49.740;10.154;2023-03-23T16:57:28;14.80;35.60
74364;DHT22;62797;49.740;10.154;2023-03-23T16:59:54;14.70;35.90
74364;DHT22;62797;49.740;10.154;2023-03-23T17:02:23;14.70;35.70
74364;DHT22;62797;49.740;10.154;2023-03-23T17:04:49;14.80;35.50
74364;DHT22;62797;49.740;10.154;2023-03-23T17:07:15;14.70;35.80
74364;DHT22;62797;49.740;10.154;2023-03-23T17:09:41;14.70;35.80
74364;DHT22;62797;49.740;10.154;2023-03-23T17:12:06;14.70;36.00
74364;DHT22;62797;49.740;10.154;2023-03-23T17:14:32;14.70;35.90
74364;DHT22;62797;49.740;10.154;2023-03-23T17:16:58;14.70;35.90
74364;DHT22;62797;49.740;10.154;2023-03-23T17:19:24;14.70;36.00
74364;DHT22;62797;49.740;10.154;2023-03-23T17:21:50;14.70;36.20
74364;DHT22;62797;49.740;10.154;2023-03-23T17:24:17;14.70;36.30
74364;DHT22;62797;49.740;10.154;2023-03-23T17:26:43;14.60;36.10
74364;DHT22;62797;49.740;10.154;2023-03-23T17:29:08;14.60;36.20